Neskowin, Oregon
Current Conditions -  °F | °C
As of 2:55 AM on Friday 19 Dec 2014 (Local Time) from KTMK Reporting Station
Overcast Overcast  
Wind Chill: 46°   Ceiling: 6500
Heat Index: 48°   Visibility: 10mi
Dew Point: 45°   Wind: 5mph
Humidity: 87%   Direction: 130°SE
Pressure: 29.89"   Gusts: NA
Location:  45.11°N, 123.98°W
Report Text: KTMK 191055Z AUTO 13004KT 10SM SCT027 SCT046 OVC065 09/07 A2989 RMK AO2 P0001
Loading
Personal Weather Stations






























Interactive Weather Map New forecast layout! Learn more

10-Day Weather Forecast

Advertisements
Track Severe Weather on mobile